Aeroporto :
LOGIN :

Iscrizione | Disclaimer

   EN    FR    IT 

 










Sommario :    VFR   VFR Marginale   IFR   IFR Intensivo   IFR Molto Intensivo
Visibilità : 
Base nubi : 
>= 8 km
>= 3000ft
5 / 8 km
1000 / 3000 ft
1500m / 5 km
500 / 1000 ft
800 / 1500m
200 / 500 ft
< 800m
< 200 ft
Simboli :   Temporali  Nebbia  Neve Forte  Precipitazioni Forti  Vento > 20 kt
SIGMETs :   Varie  Temporali  Ghiacco  Turbolenza  Onda orograficha  Ceneri Vulcaniche







- Altitudine del aeroporto : 529 ft
- Codice IATA : CHR
- Carte del aeroporto


LFLX - Chateauroux

ULTIMO METAR :
  • 142100Z AUTO 07005KT 5000 BR NSC 10/09 Q1022 TEMPO 0250 FG VV///

METARs OBSOLETI :
  • 142030Z AUTO 07004KT 6000 NSC 10/09 Q1022 TEMPO 0250 FG VV///
  • 142000Z AUTO 09005KT 6000 NSC 09/09 Q1022 TEMPO 0250 FG VV///
  • 141930Z AUTO 08006KT 7000 NSC 10/10 Q1022 TEMPO 0250 FG VV///
  • 141900Z AUTO 07006KT 6000 NSC 11/10 Q1022 TEMPO 0250 FG VV///
  • 141830Z AUTO 07004KT 7000 NSC 11/10 Q1022 TEMPO 0250 FG VV///

TAF TAF LFLX
Valido dal 14 a 18 ore il 16 a 00 ore UTC


141700Z 1418/1524 10004KT 6000 NSC
BECMG 1418/1422 3000 BR BKN002
TEMPO 1420/1509 0250 FG VV///
BECMG 1511/1513 CAVOK
BECMG 1517/1520 4000 BR NSC
TEMPO 1520/1524 1500 BCFG BKN002
Nessun NOTAM noto per questo aeroporto.



MetMap, La meteo Aeronautica in un colpo d'occhio ! - Copyright ORBIFLY Dicembre 2007 - Disclaimer

ORBIFLY MET'MAP TEAM :

Programmazione e sviluppo : Alexandra Zaïnal
Concezione e sviluppo : Baudouin d'Aumeries
Co-Programmazione e sviluppo : Marc-Olivier Méhu
Supporto tecnico e logistico : Manuel Goepfert
Aiuto per la traduzione : Arnaldo La Scala

Contatto : metmap@orbifly.com




FONTI E CREDITI :

   NOAA